Time;durP1;ratioP1;P1;durP2;ratioP2;P2;SDS_P1;SDS_P2;PMS_P1;PMS_P2;Temp;Humidity;BMP_temperature;BMP_pressure;BME280_temperature;BME280_humidity;BME280_pressure;Samples;Min_cycle;Max_cycle;Signal;HPM_P1;HPM_P2
2022/11/17 00:02:21;;;;;;;27.50;20.30;;;;;;;2.25;100.00;98436.86;104295;1336;22240;-34
2022/11/17 00:04:47;;;;;;;40.20;25.00;;;;;;;2.26;100.00;98439.77;103985;1335;478529;-34
2022/11/17 00:07:13;;;;;;;15.30;7.50;;;;;;;2.23;100.00;98441.13;104363;1331;22111;-34
2022/11/17 00:09:38;;;;;;;23.20;14.40;;;;;;;2.24;100.00;98442.58;104308;1336;22179;-34
2022/11/17 00:14:35;;;;;;;19.50;11.60;;;;;;;2.32;100.00;98434.48;104289;1338;22061;-34
2022/11/17 00:17:03;;;;;;;5.60;5.00;;;;;;;2.31;100.00;98436.52;104262;1334;22500;-37
2022/11/17 00:21:57;;;;;;;5.80;4.30;;;;;;;2.34;100.00;98428.62;104009;1335;24276;-37
2022/11/17 00:24:23;;;;;;;15.40;11.70;;;;;;;2.29;100.00;98429.36;102996;1340;22497;-37
2022/11/17 00:29:18;;;;;;;18.20;15.40;;;;;;;2.37;100.00;98417.89;104192;1333;22468;-37
2022/11/17 00:34:15;;;;;;;4.50;1.50;;;;;;;2.36;100.00;98414.86;104320;1336;22149;-34
2022/11/17 00:36:43;;;;;;;27.90;17.50;;;;;;;2.35;100.00;98414.41;104324;1323;22434;-37
2022/11/17 00:39:09;;;;;;;6.00;3.90;;;;;;;2.41;100.00;98414.48;104304;1328;22620;-37
2022/11/17 00:41:34;;;;;;;16.10;10.80;;;;;;;2.38;100.00;98410.05;103851;1339;23285;-34
2022/11/17 00:44:00;;;;;;;12.80;7.90;;;;;;;2.36;100.00;98410.09;104196;1337;22041;-36
2022/11/17 00:46:25;;;;;;;8.00;5.50;;;;;;;2.38;100.00;98404.95;104009;1336;22379;-37
2022/11/17 00:48:51;;;;;;;6.00;3.50;;;;;;;2.34;100.00;98406.87;104095;1331;22147;-34
2022/11/17 00:51:17;;;;;;;21.10;17.70;;;;;;;2.32;100.00;98409.63;104300;1334;22182;-37
2022/11/17 00:53:42;;;;;;;4.40;4.00;;;;;;;2.33;100.00;98411.98;104314;1336;22148;-34
2022/11/17 00:56:08;;;;;;;5.00;4.10;;;;;;;2.37;100.00;98408.02;104285;1326;22151;-37
2022/11/17 00:58:35;;;;;;;15.80;12.80;;;;;;;2.33;100.00;98411.91;104331;1334;22511;-34
2022/11/17 01:01:01;;;;;;;29.60;23.30;;;;;;;2.30;100.00;98414.63;104307;1340;22167;-34
2022/11/17 01:03:27;;;;;;;8.90;5.50;;;;;;;2.29;100.00;98419.98;104292;1336;22115;-34
2022/11/17 01:05:53;;;;;;;5.40;3.40;;;;;;;2.31;100.00;98411.95;104313;1331;22112;-37
2022/11/17 01:08:19;;;;;;;10.70;7.30;;;;;;;2.34;100.00;98407.41;104248;1328;22058;-35
2022/11/17 01:10:45;;;;;;;9.20;3.90;;;;;;;2.31;100.00;98408.77;104313;1328;22382;-34
2022/11/17 01:13:10;;;;;;;9.40;8.30;;;;;;;2.23;100.00;98420.30;104321;1336;22463;-33
2022/11/17 01:15:36;;;;;;;22.40;15.30;;;;;;;2.23;100.00;98425.20;103980;1330;22221;-34
2022/11/17 01:18:01;;;;;;;5.20;3.50;;;;;;;2.26;100.00;98419.77;104281;1339;22293;-34
2022/11/17 01:20:27;;;;;;;6.80;5.30;;;;;;;2.31;100.00;98415.52;104349;1332;22038;-37
2022/11/17 01:22:53;;;;;;;6.00;3.50;;;;;;;2.23;100.00;98415.30;104311;1334;22152;-37
2022/11/17 01:25:19;;;;;;;20.30;18.10;;;;;;;2.20;100.00;98420.41;104328;1335;22207;-37
2022/11/17 01:27:44;;;;;;;6.50;4.70;;;;;;;2.22;100.00;98427.09;104327;1334;22499;-37
2022/11/17 01:30:11;;;;;;;6.30;4.90;;;;;;;2.22;100.00;98433.15;104344;1331;22153;-36
2022/11/17 01:32:36;;;;;;;14.60;13.00;;;;;;;2.19;100.00;98431.48;104243;1318;24355;-34
2022/11/17 01:35:02;;;;;;;7.00;3.30;;;;;;;2.25;100.00;98424.47;104313;1334;22510;-34
2022/11/17 01:37:28;;;;;;;15.30;10.50;;;;;;;2.23;100.00;98420.83;104320;1334;22509;-34
2022/11/17 01:39:53;;;;;;;5.10;3.60;;;;;;;2.24;100.00;98424.64;104298;1327;22092;-37
2022/11/17 01:42:21;;;;;;;18.10;12.00;;;;;;;2.25;100.00;98423.48;104353;1335;22278;-34
2022/11/17 01:44:50;;;;;;;17.20;13.20;;;;;;;2.24;100.00;98424.25;104356;1328;22169;-36
2022/11/17 01:47:22;;;;;;;12.10;7.20;;;;;;;2.26;100.00;98424.08;103904;1317;22529;-34
2022/11/17 01:49:50;;;;;;;25.00;12.60;;;;;;;2.23;100.00;98422.95;104314;1336;22477;-36
2022/11/17 01:52:16;;;;;;;11.60;4.80;;;;;;;2.25;100.00;98419.56;104330;1336;22789;-37
2022/11/17 01:54:42;;;;;;;3.90;3.30;;;;;;;2.27;100.00;98409.48;104284;1331;22644;-37
2022/11/17 01:57:11;;;;;;;7.20;6.00;;;;;;;2.33;100.00;98399.06;104330;1328;22112;-37
2022/11/17 01:59:40;;;;;;;9.30;7.50;;;;;;;2.37;100.00;98391.79;104355;1324;22707;-34
2022/11/17 02:02:05;;;;;;;21.00;11.30;;;;;;;2.33;100.00;98386.63;104314;1318;22550;-37
2022/11/17 02:04:34;;;;;;;5.60;5.00;;;;;;;2.32;100.00;98385.94;104354;1335;22502;-37
2022/11/17 02:07:04;;;;;;;5.30;4.00;;;;;;;2.41;100.00;98383.05;104330;1336;22322;-36
2022/11/17 02:09:30;;;;;;;5.10;4.50;;;;;;;2.45;100.00;98374.76;104336;1311;22965;-33
2022/11/17 02:11:56;;;;;;;4.50;3.40;;;;;;;2.48;100.00;98372.36;104298;1318;22203;-34
2022/11/17 02:14:21;;;;;;;5.00;4.50;;;;;;;2.45;100.00;98366.43;104241;1331;22202;-37
2022/11/17 02:16:47;;;;;;;12.40;9.30;;;;;;;2.47;100.00;98367.53;104303;1335;22384;-37
2022/11/17 02:19:14;;;;;;;17.80;15.50;;;;;;;2.49;100.00;98369.04;104194;1336;22500;-33
2022/11/17 02:21:46;;;;;;;7.00;4.80;;;;;;;2.43;100.00;98371.96;104333;1328;22107;-37
2022/11/17 02:24:19;;;;;;;5.60;4.70;;;;;;;2.44;100.00;98376.34;104041;1336;22192;-36
2022/11/17 02:26:46;;;;;;;7.90;6.70;;;;;;;2.45;100.00;98378.83;104278;1336;23003;-33
2022/11/17 02:29:21;;;;;;;11.70;9.00;;;;;;;2.44;100.00;98379.86;104316;1336;22355;-36
2022/11/17 02:31:52;;;;;;;11.70;10.30;;;;;;;2.48;100.00;98375.95;104299;1328;22150;-33
2022/11/17 02:34:27;;;;;;;9.70;7.30;;;;;;;2.49;100.00;98369.34;104242;1336;22543;-33
2022/11/17 02:36:55;;;;;;;18.80;14.00;;;;;;;2.49;100.00;98363.35;103632;1334;22619;-33
2022/11/17 02:39:24;;;;;;;8.70;7.50;;;;;;;2.47;100.00;98362.69;103896;1336;22189;-36
2022/11/17 02:41:55;;;;;;;16.30;12.80;;;;;;;2.49;100.00;98358.61;104303;1334;22211;-33
2022/11/17 02:44:25;;;;;;;6.10;4.70;;;;;;;2.50;100.00;98355.73;102958;1323;22493;-36
2022/11/17 02:46:55;;;;;;;11.60;10.50;;;;;;;2.49;100.00;98351.84;103411;1334;22351;-36
2022/11/17 02:49:22;;;;;;;8.90;5.80;;;;;;;2.53;100.00;98348.05;104312;1336;22577;-36
2022/11/17 02:51:50;;;;;;;9.10;8.20;;;;;;;2.59;100.00;98338.39;104320;1336;22174;-33
2022/11/17 02:54:16;;;;;;;15.00;12.20;;;;;;;2.51;100.00;98343.89;104328;1326;22034;-33
2022/11/17 02:56:42;;;;;;;6.70;5.90;;;;;;;2.55;100.00;98336.70;104341;1335;22510;-33
2022/11/17 02:59:08;;;;;;;26.40;19.10;;;;;;;2.56;100.00;98330.59;104340;1334;22380;-37
2022/11/17 03:01:40;;;;;;;15.50;10.80;;;;;;;2.51;100.00;98326.56;104338;1334;22066;-33
2022/11/17 03:04:16;;;;;;;8.20;5.30;;;;;;;2.47;100.00;98334.34;104316;1331;22580;-33
2022/11/17 03:06:50;;;;;;;7.90;5.10;;;;;;;2.47;100.00;98338.34;104201;1336;22063;-33
2022/11/17 03:09:19;;;;;;;22.80;14.60;;;;;;;2.48;100.00;98341.92;104183;1336;24293;-33
2022/11/17 03:11:49;;;;;;;11.50;9.00;;;;;;;2.46;100.00;98345.54;104165;1336;22631;-33
2022/11/17 03:14:19;;;;;;;5.00;3.90;;;;;;;2.50;100.00;98338.86;104283;1328;22547;-33
2022/11/17 03:16:51;;;;;;;13.80;10.10;;;;;;;2.46;100.00;98337.90;104249;1333;22559;-36
2022/11/17 03:19:19;;;;;;;79.90;45.30;;;;;;;2.47;100.00;98344.01;104074;1328;22482;-32
2022/11/17 03:21:53;;;;;;;6.30;4.80;;;;;;;2.43;100.00;98345.85;104217;1335;22400;-33
2022/11/17 03:24:22;;;;;;;29.90;16.50;;;;;;;2.46;100.00;98342.68;104267;1328;22154;-33
2022/11/17 03:26:52;;;;;;;23.20;14.20;;;;;;;2.44;100.00;98343.45;104203;1334;22137;-36
2022/11/17 03:29:19;;;;;;;30.50;17.90;;;;;;;2.50;100.00;98333.27;104282;1335;22206;-36
2022/11/17 03:31:44;;;;;;;52.40;27.60;;;;;;;2.51;100.00;98328.21;104313;1328;22214;-33
2022/11/17 03:34:14;;;;;;;9.00;7.20;;;;;;;2.44;100.00;98328.61;103999;1331;22498;-32
2022/11/17 03:36:42;;;;;;;30.00;16.50;;;;;;;2.53;100.00;98323.02;103950;1335;22438;-35
2022/11/17 03:39:12;;;;;;;7.90;4.40;;;;;;;2.52;100.00;98317.95;104353;1335;22264;-36
2022/11/17 03:41:41;;;;;;;53.10;29.60;;;;;;;2.49;100.00;98327.34;104166;1335;22165;-36
2022/11/17 03:44:06;;;;;;;20.60;11.90;;;;;;;2.41;100.00;98323.86;104332;1328;22510;-36
2022/11/17 03:46:33;;;;;;;28.60;16.90;;;;;;;2.41;100.00;98324.31;104308;1333;22518;-36
2022/11/17 03:49:08;;;;;;;92.90;47.60;;;;;;;2.44;100.00;98323.15;104330;1335;22046;-32
2022/11/17 03:51:34;;;;;;;12.80;6.10;;;;;;;2.43;100.00;98327.20;104305;1334;22526;-36
2022/11/17 03:53:59;;;;;;;7.10;5.80;;;;;;;2.44;100.00;98324.56;104332;1334;22152;-36
2022/11/17 03:56:28;;;;;;;9.30;7.20;;;;;;;2.41;100.00;98327.20;104307;1328;22542;-36
2022/11/17 03:58:59;;;;;;;39.50;22.90;;;;;;;2.41;100.00;98321.73;104324;1334;22305;-33
2022/11/17 04:01:24;;;;;;;5.90;3.90;;;;;;;2.43;100.00;98316.85;104284;1328;22266;-36
2022/11/17 04:03:50;;;;;;;12.60;8.00;;;;;;;2.38;100.00;98319.43;104167;1336;22037;-36
2022/11/17 04:06:16;;;;;;;9.40;4.80;;;;;;;2.33;100.00;98321.13;104300;1336;22508;-33
2022/11/17 04:08:41;;;;;;;15.10;7.80;;;;;;;2.29;100.00;98320.68;104172;1336;22190;-35
2022/11/17 04:16:06;;;;;;;11.30;7.40;;;;;;;2.19;100.00;98333.13;103909;1334;22213;-32
2022/11/17 04:18:31;;;;;;;11.80;7.90;;;;;;;2.21;100.00;98341.39;104208;1328;22069;-32
2022/11/17 04:20:57;;;;;;;17.80;11.90;;;;;;;2.23;100.00;98344.14;104274;1336;22427;-35
2022/11/17 04:23:23;;;;;;;11.50;6.10;;;;;;;2.13;100.00;98352.50;104327;1334;22213;-35
2022/11/17 04:30:48;;;;;;;55.10;26.90;;;;;;;2.14;100.00;98359.36;104325;1334;22235;-38
2022/11/17 04:33:14;;;;;;;29.70;19.70;;;;;;;2.10;100.00;98359.38;104341;1336;22196;-32
2022/11/17 04:35:39;;;;;;;52.90;28.70;;;;;;;2.09;100.00;98364.27;104256;1336;22150;-32
2022/11/17 04:38:05;;;;;;;19.80;10.50;;;;;;;2.07;100.00;98368.83;104158;1328;22250;-36
2022/11/17 04:41:52;;;;;;;65.30;31.20;;;;;;;2.13;100.00;98366.08;104329;1327;22165;-33
2022/11/17 04:43:16;;;;;;;30.80;17.30;;;;;;;2.11;100.00;98370.79;104034;1336;22194;-36
2022/11/17 04:45:42;;;;;;;15.90;9.90;;;;;;;2.11;100.00;98369.99;104268;1333;22097;-36
2022/11/17 04:48:07;;;;;;;71.10;34.60;;;;;;;2.09;100.00;98375.02;104304;1334;22069;-33
2022/11/17 04:50:33;;;;;;;20.00;13.90;;;;;;;2.13;100.00;98371.57;104306;1334;22495;-36
2022/11/17 04:52:58;;;;;;;31.10;16.00;;;;;;;2.16;100.00;98364.52;104304;1334;22229;-33
2022/11/17 04:55:24;;;;;;;71.60;30.30;;;;;;;2.16;100.00;98361.36;104313;1335;22306;-33
2022/11/17 04:57:49;;;;;;;77.40;29.50;;;;;;;2.18;100.00;98351.08;104293;1331;22073;-36
2022/11/17 05:00:15;;;;;;;87.80;42.30;;;;;;;2.17;100.00;98347.36;104279;1321;22679;-36
2022/11/17 05:02:41;;;;;;;38.20;20.10;;;;;;;2.25;100.00;98342.34;104276;1334;22293;-32
2022/11/17 05:05:07;;;;;;;74.80;40.50;;;;;;;2.22;100.00;98336.39;104025;1328;22485;-36
2022/11/17 05:07:33;;;;;;;84.00;47.20;;;;;;;2.18;100.00;98335.52;104205;1334;22562;-32
2022/11/17 05:10:00;;;;;;;21.80;16.10;;;;;;;2.21;100.00;98335.43;104245;1336;22833;-38
2022/11/17 05:14:55;;;;;;;6.50;4.60;;;;;;;2.23;100.00;98332.48;104313;1314;22162;-33
2022/11/17 05:17:21;;;;;;;10.90;9.70;;;;;;;2.20;100.00;98332.86;104213;1336;22287;-32
2022/11/17 05:19:47;;;;;;;29.30;15.30;;;;;;;2.23;100.00;98332.80;104289;1335;22517;-32
2022/11/17 05:24:44;;;;;;;8.00;4.40;;;;;;;2.27;100.00;98328.73;104293;1328;22534;-33
2022/11/17 05:27:11;;;;;;;11.70;8.40;;;;;;;2.29;100.00;98332.54;104313;1319;22531;-33
2022/11/17 05:29:36;;;;;;;5.10;4.30;;;;;;;2.27;100.00;98335.06;104331;1322;22009;-32
2022/11/17 05:32:02;;;;;;;8.00;6.20;;;;;;;2.29;100.00;98334.88;104314;1328;22317;-38
2022/11/17 05:34:28;;;;;;;9.80;4.20;;;;;;;2.30;100.00;98337.69;104349;1323;22158;-32
2022/11/17 05:36:53;;;;;;;6.90;4.90;;;;;;;2.30;100.00;98341.14;104298;1335;22170;-33
2022/11/17 05:39:19;;;;;;;10.00;7.00;;;;;;;2.34;100.00;98339.73;104125;1324;22532;-36
2022/11/17 05:41:44;;;;;;;11.50;5.30;;;;;;;2.38;100.00;98332.48;104298;1327;22224;-32
2022/11/17 05:44:10;;;;;;;4.70;3.40;;;;;;;2.35;100.00;98335.30;104210;1334;22863;-33
2022/11/17 05:46:36;;;;;;;9.20;7.40;;;;;;;2.31;100.00;98334.75;104349;1335;22175;-33
2022/11/17 05:49:01;;;;;;;11.50;5.70;;;;;;;2.35;100.00;98330.80;104316;1328;22139;-36
2022/11/17 05:51:27;;;;;;;4.40;2.90;;;;;;;2.39;100.00;98331.52;104334;1334;22062;-36
2022/11/17 05:53:53;;;;;;;16.50;7.60;;;;;;;2.37;100.00;98333.08;104196;1334;22528;-36
2022/11/17 05:56:27;;;;;;;19.00;8.40;;;;;;;2.38;100.00;98330.52;104272;1334;22563;-33
2022/11/17 05:58:57;;;;;;;11.80;8.50;;;;;;;2.40;100.00;98333.25;104307;1334;22203;-32
2022/11/17 06:01:23;;;;;;;16.20;12.60;;;;;;;2.40;100.00;98339.13;104276;1326;22185;-36
2022/11/17 06:03:51;;;;;;;14.20;6.30;;;;;;;2.41;100.00;98340.48;104242;1335;22426;-37
2022/11/17 06:06:17;;;;;;;11.50;5.80;;;;;;;2.44;100.00;98345.28;104196;1336;22050;-37
2022/11/17 06:08:42;;;;;;;16.00;7.20;;;;;;;2.41;100.00;98344.63;103660;1336;24292;-33
2022/11/17 06:11:08;;;;;;;14.20;6.90;;;;;;;2.43;100.00;98346.70;104209;1336;22496;-37
2022/11/17 06:13:33;;;;;;;5.70;4.70;;;;;;;2.45;100.00;98342.49;104319;1327;22520;-37
2022/11/17 06:16:01;;;;;;;15.40;8.50;;;;;;;2.45;100.00;98344.27;104242;1319;22518;-34
2022/11/17 06:18:30;;;;;;;14.90;8.20;;;;;;;2.35;100.00;98344.93;104015;1334;23421;-37
2022/11/17 06:20:55;;;;;;;31.90;13.90;;;;;;;2.40;100.00;98344.13;104099;1315;23124;-33
2022/11/17 06:23:21;;;;;;;8.30;5.10;;;;;;;2.38;100.00;98347.19;104292;1333;22529;-33
2022/11/17 06:25:47;;;;;;;12.40;6.00;;;;;;;2.37;100.00;98350.23;104272;1328;22101;-33
2022/11/17 06:28:14;;;;;;;12.50;5.20;;;;;;;2.36;100.00;98353.88;104135;1336;22495;-34
2022/11/17 06:30:39;;;;;;;6.40;5.50;;;;;;;2.38;100.00;98351.91;104226;1328;22051;-37
2022/11/17 06:33:07;;;;;;;3.80;3.30;;;;;;;2.40;100.00;98358.57;104222;1328;23151;-37
2022/11/17 06:35:34;;;;;;;13.30;4.30;;;;;;;2.40;100.00;98356.15;104223;1328;22503;-37
2022/11/17 06:38:00;;;;;;;11.20;4.40;;;;;;;2.41;100.00;98354.40;104250;1334;22164;-34
2022/11/17 06:40:26;;;;;;;6.00;2.90;;;;;;;2.44;100.00;98345.90;104239;1336;22082;-34
2022/11/17 06:45:21;;;;;;;18.00;10.00;;;;;;;2.43;100.00;98346.27;103857;1327;22218;-34
2022/11/17 06:47:47;;;;;;;5.90;5.00;;;;;;;2.42;100.00;98347.00;103325;1336;22499;-36
2022/11/17 06:50:12;;;;;;;10.30;5.80;;;;;;;2.47;100.00;98347.48;104222;1328;22580;-36
2022/11/17 06:52:38;;;;;;;11.80;6.70;;;;;;;2.33;100.00;98353.29;104118;1335;22192;-37
2022/11/17 06:55:04;;;;;;;14.70;7.60;;;;;;;2.29;100.00;98349.45;104186;1328;22636;-37
2022/11/17 06:57:29;;;;;;;6.30;5.00;;;;;;;2.34;100.00;98350.56;103775;1336;22497;-34
2022/11/17 06:59:55;;;;;;;15.20;10.60;;;;;;;2.35;100.00;98353.09;104083;1328;22508;-34
2022/11/17 07:02:21;;;;;;;5.90;5.20;;;;;;;2.23;100.00;98356.55;103808;1334;22600;-36
2022/11/17 07:04:46;;;;;;;5.40;3.60;;;;;;;2.23;100.00;98351.61;104111;1333;22116;-36
2022/11/17 07:07:12;;;;;;;7.80;5.80;;;;;;;2.21;100.00;98355.05;104276;1334;22174;-33
2022/11/17 07:09:37;;;;;;;4.60;3.20;;;;;;;2.20;100.00;98355.08;104207;1335;22035;-37
2022/11/17 07:12:03;;;;;;;10.00;7.20;;;;;;;2.26;100.00;98349.86;104338;1331;22051;-33
2022/11/17 07:14:29;;;;;;;12.70;4.50;;;;;;;2.18;100.00;98356.05;104314;1334;22023;-32
2022/11/17 07:16:54;;;;;;;7.10;4.30;;;;;;;2.20;100.00;98351.90;104283;1328;22517;-36
2022/11/17 07:19:20;;;;;;;6.80;4.60;;;;;;;2.25;100.00;98349.77;104215;1334;22168;-36
2022/11/17 07:21:46;;;;;;;7.70;5.30;;;;;;;2.25;100.00;98352.77;104279;1336;22356;-33
2022/11/17 07:24:11;;;;;;;5.70;4.60;;;;;;;2.20;100.00;98355.95;104318;1334;22499;-33
2022/11/17 07:26:37;;;;;;;10.40;4.30;;;;;;;2.15;100.00;98348.46;104222;1328;22572;-37
2022/11/17 07:29:03;;;;;;;12.80;5.40;;;;;;;2.24;100.00;98345.69;104078;1331;22515;-33
2022/11/17 07:31:29;;;;;;;8.40;5.20;;;;;;;2.19;100.00;98349.55;104241;1321;22477;-33
2022/11/17 07:33:54;;;;;;;6.50;4.80;;;;;;;2.21;100.00;98347.25;103759;1334;22521;-36
2022/11/17 07:36:20;;;;;;;5.70;3.70;;;;;;;2.17;100.00;98355.60;103970;1336;22414;-33
2022/11/17 07:38:46;;;;;;;9.90;4.90;;;;;;;2.13;100.00;98353.02;104273;1334;22199;-37
2022/11/17 07:41:12;;;;;;;5.10;3.80;;;;;;;2.13;100.00;98356.38;104309;1335;22248;-33
2022/11/17 07:43:38;;;;;;;6.80;3.90;;;;;;;2.13;100.00;98354.42;104296;1334;22529;-36
2022/11/17 07:46:05;;;;;;;7.80;6.30;;;;;;;2.14;100.00;98359.45;104148;1336;22526;-37
2022/11/17 07:48:31;;;;;;;6.10;5.50;;;;;;;2.16;100.00;98354.30;104196;1328;22626;-33
2022/11/17 07:50:58;;;;;;;6.00;5.00;;;;;;;2.15;100.00;98354.74;104272;1335;22262;-33
2022/11/17 07:53:24;;;;;;;5.00;4.10;;;;;;;2.16;100.00;98358.23;104224;1334;22347;-33
2022/11/17 07:55:50;;;;;;;5.00;3.50;;;;;;;2.18;100.00;98355.55;104273;1335;22448;-33
2022/11/17 07:58:15;;;;;;;6.20;5.30;;;;;;;2.16;100.00;98353.80;104293;1334;22054;-36
2022/11/17 08:00:41;;;;;;;5.80;4.30;;;;;;;2.14;100.00;98356.23;103809;1334;22513;-36
2022/11/17 08:03:06;;;;;;;9.50;4.20;;;;;;;2.16;100.00;98356.63;103931;1331;430686;-33
2022/11/17 08:05:33;;;;;;;9.20;6.20;;;;;;;2.21;100.00;98351.16;104255;1328;22518;-33
2022/11/17 08:07:59;;;;;;;8.40;5.60;;;;;;;2.09;100.00;98355.06;103850;1336;24299;-32
2022/11/17 08:10:26;;;;;;;6.80;5.10;;;;;;;2.11;100.00;98349.06;103977;1328;22476;-36
2022/11/17 08:12:52;;;;;;;6.20;4.70;;;;;;;2.12;100.00;98350.35;104310;1334;22655;-36
2022/11/17 08:15:18;;;;;;;5.00;3.10;;;;;;;2.05;100.00;98346.36;104250;1334;22381;-33
2022/11/17 08:17:45;;;;;;;3.80;3.00;;;;;;;2.05;100.00;98353.98;104222;1335;22244;-33
2022/11/17 08:20:11;;;;;;;5.00;3.70;;;;;;;2.01;100.00;98364.84;104286;1335;22498;-36
2022/11/17 08:22:37;;;;;;;2.90;2.60;;;;;;;2.00;100.00;98362.82;104267;1328;22228;-37
2022/11/17 08:25:03;;;;;;;4.70;3.80;;;;;;;2.06;100.00;98363.18;104184;1328;22508;-33
2022/11/17 08:27:29;;;;;;;7.70;4.40;;;;;;;2.03;100.00;98367.76;104294;1334;22506;-37
2022/11/17 08:29:54;;;;;;;4.90;4.20;;;;;;;1.96;100.00;98372.88;104231;1331;22670;-33
2022/11/17 08:32:21;;;;;;;3.60;2.70;;;;;;;1.94;100.00;98372.06;104222;1328;22094;-34
2022/11/17 08:34:46;;;;;;;5.60;3.90;;;;;;;1.94;100.00;98375.61;104272;1328;22238;-36
2022/11/17 08:37:12;;;;;;;4.40;3.20;;;;;;;1.96;100.00;98370.48;104215;1336;22118;-32
2022/11/17 08:39:38;;;;;;;13.00;3.80;;;;;;;1.94;100.00;98368.42;104238;1333;22533;-36
2022/11/17 08:42:03;;;;;;;5.40;3.70;;;;;;;1.95;100.00;98371.98;104219;1334;22422;-37
2022/11/17 08:44:30;;;;;;;4.90;3.80;;;;;;;1.93;100.00;98376.50;104246;1334;22685;-37
2022/11/17 08:46:55;;;;;;;4.90;3.60;;;;;;;1.91;100.00;98381.04;104250;1336;22653;-33
2022/11/17 08:49:21;;;;;;;4.10;2.50;;;;;;;1.96;100.00;98380.73;104074;1336;22524;-33
2022/11/17 08:51:46;;;;;;;6.30;3.50;;;;;;;2.00;100.00;98385.92;104246;1328;22717;-36
2022/11/17 08:54:12;;;;;;;5.80;4.00;;;;;;;1.96;100.00;98391.95;104278;1328;22194;-33
2022/11/17 08:56:39;;;;;;;8.70;3.70;;;;;;;1.96;100.00;98392.34;104284;1333;22583;-33
2022/11/17 08:59:04;;;;;;;14.40;6.00;;;;;;;1.96;100.00;98397.41;104328;1333;22487;-33
2022/11/17 09:01:30;;;;;;;21.90;5.10;;;;;;;1.99;100.00;98392.35;104297;1328;22508;-36
2022/11/17 09:03:56;;;;;;;7.20;4.90;;;;;;;2.01;100.00;98391.13;104285;1334;22212;-33
2022/11/17 09:06:22;;;;;;;5.30;3.20;;;;;;;1.99;100.00;98393.37;104214;1334;22043;-37
2022/11/17 09:08:48;;;;;;;7.10;4.40;;;;;;;1.95;100.00;98393.51;104130;1334;24308;-33
2022/11/17 09:11:15;;;;;;;9.10;3.20;;;;;;;1.97;100.00;98389.55;104179;1334;22571;-37
2022/11/17 09:13:41;;;;;;;4.10;2.80;;;;;;;1.97;100.00;98388.55;103761;1335;22514;-36
2022/11/17 09:16:08;;;;;;;4.50;2.80;;;;;;;1.95;100.00;98383.66;104205;1324;22035;-33
2022/11/17 09:18:35;;;;;;;7.00;2.90;;;;;;;1.92;100.00;98383.81;104257;1328;22509;-36
2022/11/17 09:21:02;;;;;;;7.00;4.30;;;;;;;1.90;100.00;98379.02;104288;1334;22517;-33
2022/11/17 09:23:28;;;;;;;7.50;5.00;;;;;;;1.94;100.00;98379.91;104245;1327;22535;-33
2022/11/17 09:25:53;;;;;;;9.50;3.50;;;;;;;1.94;100.00;98380.36;104317;1335;22516;-33
2022/11/17 09:28:19;;;;;;;8.40;4.90;;;;;;;1.89;100.00;98380.73;104303;1335;22185;-33
2022/11/17 09:30:45;;;;;;;11.50;6.90;;;;;;;1.82;100.00;98380.45;104275;1336;22515;-37
2022/11/17 09:33:10;;;;;;;7.60;4.60;;;;;;;1.82;100.00;98382.55;104342;1336;22292;-37
2022/11/17 09:35:36;;;;;;;4.40;3.30;;;;;;;1.78;100.00;98381.69;104203;1333;22059;-33
2022/11/17 09:38:02;;;;;;;5.10;3.80;;;;;;;1.77;100.00;98383.11;104192;1318;22514;-33
2022/11/17 09:40:27;;;;;;;5.60;4.10;;;;;;;1.67;100.00;98381.66;103586;1334;22641;-33
2022/11/17 09:42:53;;;;;;;7.60;4.50;;;;;;;1.66;100.00;98384.08;103663;1327;22052;-33
2022/11/17 09:45:21;;;;;;;14.40;7.50;;;;;;;1.57;100.00;98388.23;104287;1334;22513;-35
2022/11/17 09:47:53;;;;;;;5.30;4.50;;;;;;;1.59;100.00;98392.04;104168;1329;22502;-36
2022/11/17 09:50:26;;;;;;;6.60;4.40;;;;;;;1.59;100.00;98391.41;104198;1328;22137;-33
2022/11/17 09:52:55;;;;;;;7.30;3.60;;;;;;;1.57;100.00;98398.80;104302;1334;22863;-37
2022/11/17 09:55:21;;;;;;;7.80;3.50;;;;;;;1.58;100.00;98402.63;104253;1334;22162;-33
2022/11/17 09:57:49;;;;;;;3.80;3.00;;;;;;;1.60;100.00;98398.63;104306;1335;22505;-36
2022/11/17 10:00:19;;;;;;;5.60;3.50;;;;;;;1.59;100.00;98400.77;104063;1328;22201;-37
2022/11/17 10:02:45;;;;;;;6.20;5.40;;;;;;;1.60;100.00;98401.31;104214;1321;22504;-33
2022/11/17 10:05:14;;;;;;;6.40;3.30;;;;;;;1.62;100.00;98396.52;104270;1334;22146;-36
2022/11/17 10:07:43;;;;;;;5.40;4.40;;;;;;;1.61;100.00;98395.15;104268;1334;22338;-33
2022/11/17 10:10:12;;;;;;;11.00;3.60;;;;;;;1.58;100.00;98391.28;103791;1328;24408;-36
2022/11/17 10:12:40;;;;;;;4.90;3.40;;;;;;;1.65;100.00;98388.61;103888;1328;22511;-36
2022/11/17 10:15:20;;;;;;;4.00;3.00;;;;;;;1.70;100.00;98387.16;104061;1324;22080;-33
2022/11/17 10:17:45;;;;;;;3.40;2.80;;;;;;;1.70;100.00;98388.85;104213;1326;22522;-36
2022/11/17 10:20:14;;;;;;;4.20;3.20;;;;;;;1.70;100.00;98383.71;104307;1328;22503;-36
2022/11/17 10:22:40;;;;;;;3.20;2.40;;;;;;;1.74;100.00;98381.98;104290;1328;22316;-33
2022/11/17 10:25:17;;;;;;;6.20;4.00;;;;;;;1.75;100.00;98378.73;104117;1320;22508;-33
2022/11/17 10:27:42;;;;;;;3.80;2.90;;;;;;;1.80;100.00;98378.23;104329;1327;22267;-36
2022/11/17 10:30:22;;;;;;;4.20;1.60;;;;;;;1.75;100.00;98380.80;104172;1334;22724;-34
2022/11/17 10:32:50;;;;;;;6.90;4.40;;;;;;;1.78;100.00;98375.19;104221;1335;22800;-37
2022/11/17 10:35:16;;;;;;;8.30;4.70;;;;;;;1.77;100.00;98372.20;104236;1336;22554;-32
2022/11/17 10:37:50;;;;;;;3.70;3.00;;;;;;;1.85;100.00;98376.01;104293;1328;22056;-36
2022/11/17 10:40:19;;;;;;;7.70;5.90;;;;;;;1.83;100.00;98379.81;104015;1336;22627;-33
2022/11/17 10:42:53;;;;;;;8.10;3.70;;;;;;;1.86;100.00;98379.94;103514;1334;22233;-36
2022/11/17 10:45:19;;;;;;;5.80;4.20;;;;;;;1.93;100.00;98374.18;104109;1334;22656;-36
2022/11/17 10:47:45;;;;;;;9.10;5.10;;;;;;;1.96;100.00;98368.52;104222;1335;22545;-34
2022/11/17 10:50:14;;;;;;;6.70;3.80;;;;;;;2.01;100.00;98363.71;104094;1331;22179;-33
2022/11/17 10:52:40;;;;;;;5.10;2.80;;;;;;;2.09;100.00;98363.38;104347;1328;22126;-34
2022/11/17 10:55:16;;;;;;;3.90;3.30;;;;;;;2.11;100.00;98363.63;104270;1320;22083;-37
2022/11/17 10:57:43;;;;;;;5.70;2.80;;;;;;;2.14;100.00;98358.46;104324;1336;22575;-36
2022/11/17 11:00:22;;;;;;;4.60;4.20;;;;;;;2.14;100.00;98359.29;104268;1328;22180;-36
2022/11/17 11:02:48;;;;;;;6.40;4.30;;;;;;;2.10;100.00;98363.64;104310;1334;22511;-33
2022/11/17 11:05:15;;;;;;;22.20;3.90;;;;;;;2.01;100.00;98363.74;104195;1336;22112;-37
2022/11/17 11:07:42;;;;;;;15.60;5.90;;;;;;;1.97;100.00;98369.51;104283;1335;22512;-32
2022/11/17 11:10:09;;;;;;;6.60;5.70;;;;;;;1.98;100.00;98371.66;104276;1327;22260;-34
2022/11/17 11:12:42;;;;;;;7.20;4.20;;;;;;;1.91;100.00;98367.27;104311;1321;22223;-32
2022/11/17 11:15:14;;;;;;;4.20;2.30;;;;;;;1.95;100.00;98364.91;104278;1334;22198;-32
2022/11/17 11:17:39;;;;;;;3.80;2.90;;;;;;;1.91;100.00;98363.89;104118;1335;22245;-36
2022/11/17 11:20:06;;;;;;;6.30;3.90;;;;;;;1.89;100.00;98363.02;103857;1327;22186;-32
2022/11/17 11:22:41;;;;;;;4.90;3.10;;;;;;;1.92;100.00;98361.94;104279;1314;22351;-36
2022/11/17 11:25:13;;;;;;;4.20;3.60;;;;;;;2.04;100.00;98356.37;104275;1336;22176;-32
2022/11/17 11:27:48;;;;;;;4.60;4.20;;;;;;;2.04;100.00;98357.26;104288;1334;22183;-32
2022/11/17 11:30:15;;;;;;;6.60;4.00;;;;;;;2.08;100.00;98356.63;104292;1334;22038;-36
2022/11/17 11:32:44;;;;;;;8.60;4.10;;;;;;;2.08;100.00;98363.27;104297;1334;22481;-33
2022/11/17 11:35:17;;;;;;;4.10;3.10;;;;;;;2.10;100.00;98365.36;104207;1334;22509;-36
2022/11/17 11:37:51;;;;;;;6.20;4.30;;;;;;;2.12;100.00;98357.54;104113;1328;22531;-36
2022/11/17 11:40:21;;;;;;;9.10;6.40;;;;;;;2.08;100.00;98364.69;104259;1328;22063;-36
2022/11/17 11:43:26;;;;;;;5.80;4.90;;;;;;;2.06;100.00;98363.64;104224;1324;22215;-33
2022/11/17 11:46:02;;;;;;;13.70;4.50;;;;;;;2.09;100.00;98356.52;104270;1336;22223;-33
2022/11/17 11:48:32;;;;;;;9.10;6.20;;;;;;;2.00;100.00;98357.14;104232;1336;22531;-36